createdAt,value
2022-09-13T00:01:11.085Z,2.60
2022-09-13T00:03:15.165Z,2.55
2022-09-13T00:05:17.808Z,2.50
2022-09-13T00:07:20.506Z,2.30
2022-09-13T00:09:23.105Z,2.17
2022-09-13T00:11:27.569Z,2.30
2022-09-13T00:13:30.169Z,2.17
2022-09-13T00:15:32.980Z,2.20
2022-09-13T00:17:35.861Z,2.20
2022-09-13T00:19:39.821Z,2.10
2022-09-13T00:21:42.431Z,2.00
2022-09-13T00:23:46.499Z,2.10
2022-09-13T00:25:49.077Z,2.17
2022-09-13T00:27:51.865Z,2.35
2022-09-13T00:29:54.499Z,2.03
2022-09-13T00:31:57.736Z,2.15
2022-09-13T00:34:01.091Z,2.22
2022-09-13T00:36:07.296Z,1.88
2022-09-13T00:38:09.871Z,1.80
2022-09-13T00:40:12.844Z,1.80
2022-09-13T00:42:15.983Z,1.60
2022-09-13T00:44:58.716Z,2.10
2022-09-13T00:47:02.102Z,1.83
2022-09-13T00:49:15.262Z,1.77
2022-09-13T00:51:19.390Z,1.80
2022-09-13T00:53:29.862Z,1.85
2022-09-13T00:55:36.446Z,2.15
2022-09-13T00:57:40.408Z,1.70
2022-09-13T00:59:47.766Z,2.00
2022-09-13T01:01:54.549Z,1.60
2022-09-13T01:03:57.302Z,1.63
2022-09-13T01:06:06.010Z,2.00
2022-09-13T01:08:15.486Z,1.80
2022-09-13T01:10:18.432Z,1.52
2022-09-13T01:12:33.289Z,1.55
2022-09-13T01:14:36.922Z,1.52
2022-09-13T01:16:39.601Z,1.50
2022-09-13T01:18:42.262Z,1.88
2022-09-13T01:20:53.788Z,1.67
2022-09-13T01:23:23.108Z,1.55
2022-09-13T01:26:02.203Z,1.67
2022-09-13T01:28:19.252Z,1.40
2022-09-13T01:30:23.933Z,1.50
2022-09-13T01:32:41.148Z,1.58
2022-09-13T01:34:57.833Z,1.50
2022-09-13T01:37:16.762Z,1.40
2022-09-13T01:39:29.960Z,1.40
2022-09-13T01:41:51.082Z,1.40
2022-09-13T01:43:58.925Z,1.50
2022-09-13T01:46:07.253Z,1.50
2022-09-13T01:48:19.973Z,1.50
2022-09-13T01:50:30.786Z,1.70
2022-09-13T01:52:42.966Z,1.77
2022-09-13T01:54:55.489Z,1.55
2022-09-13T01:57:02.847Z,1.63
2022-09-13T01:59:12.805Z,1.58
2022-09-13T02:01:20.425Z,1.55
2022-09-13T02:03:29.683Z,1.55
2022-09-13T02:05:38.098Z,1.52
2022-09-13T02:07:43.284Z,1.65
2022-09-13T02:09:51.486Z,1.50
2022-09-13T02:12:01.693Z,1.58
2022-09-13T02:14:10.222Z,1.60
2022-09-13T02:16:22.523Z,1.50
2022-09-13T02:18:31.701Z,1.58
2022-09-13T02:20:38.173Z,1.60
2022-09-13T02:22:47.490Z,1.67
2022-09-13T02:24:56.338Z,1.40
2022-09-13T02:27:02.518Z,1.63
2022-09-13T02:29:09.050Z,2.03
2022-09-13T02:33:19.947Z,1.85
2022-09-13T02:35:29.401Z,1.75
2022-09-13T02:37:35.156Z,1.85
2022-09-13T02:39:42.740Z,1.52
2022-09-13T02:41:52.500Z,1.58
2022-09-13T02:44:02.369Z,1.90
2022-09-13T02:46:17.213Z,1.70
2022-09-13T02:48:26.592Z,1.73
2022-09-13T02:50:42.891Z,1.80
2022-09-13T02:52:51.463Z,2.00
2022-09-13T02:55:01.898Z,1.92
2022-09-13T02:57:10.678Z,1.90
2022-09-13T02:59:17.133Z,1.90
2022-09-13T03:05:36.517Z,2.03
2022-09-13T03:07:39.093Z,1.88
2022-09-13T03:09:47.246Z,2.10
2022-09-13T03:12:06.549Z,1.95
2022-09-13T03:14:24.100Z,1.90
2022-09-13T03:16:44.266Z,2.17
2022-09-13T03:19:00.155Z,1.98
2022-09-13T03:21:11.897Z,1.90
2022-09-13T03:23:31.574Z,2.10
2022-09-13T03:25:49.677Z,1.92
2022-09-13T03:28:02.711Z,2.20
2022-09-13T03:30:08.262Z,3.67
2022-09-13T03:32:21.072Z,1.98
2022-09-13T03:34:32.435Z,2.05
2022-09-13T03:36:39.975Z,4.25
2022-09-13T03:38:46.977Z,3.65
2022-09-13T03:40:54.719Z,2.20
2022-09-13T03:43:02.539Z,2.13
2022-09-13T03:45:09.049Z,3.78
2022-09-13T03:49:16.759Z,2.30
2022-09-13T03:51:19.849Z,2.05
2022-09-13T03:53:27.059Z,2.20
2022-09-13T03:55:31.187Z,2.80
2022-09-13T03:57:33.757Z,2.70
2022-09-13T03:59:38.658Z,2.28
2022-09-13T04:01:41.755Z,2.03
2022-09-13T04:03:44.347Z,2.20
2022-09-13T04:05:47.134Z,2.42
2022-09-13T04:07:49.853Z,2.58
2022-09-13T04:09:53.836Z,2.70
2022-09-13T04:11:56.427Z,2.28
2022-09-13T04:13:59.299Z,2.22
2022-09-13T04:16:03.346Z,2.15
2022-09-13T04:18:06.049Z,2.20
2022-09-13T04:20:09.288Z,2.00
2022-09-13T04:22:12.014Z,2.30
2022-09-13T04:24:15.086Z,2.53
2022-09-13T04:26:19.037Z,2.90
2022-09-13T04:28:23.253Z,2.30
2022-09-13T04:30:25.846Z,2.50
2022-09-13T04:32:28.540Z,2.20
2022-09-13T04:34:31.160Z,2.33
2022-09-13T04:36:34.266Z,2.60
2022-09-13T04:38:37.577Z,3.00
2022-09-13T04:40:40.635Z,2.50
2022-09-13T04:42:46.253Z,2.00
2022-09-13T04:44:49.720Z,2.38
2022-09-13T04:46:52.491Z,2.20
2022-09-13T04:48:55.492Z,2.70
2022-09-13T04:51:04.531Z,2.60
2022-09-13T04:53:07.191Z,2.47
2022-09-13T04:55:10.159Z,2.22
2022-09-13T04:57:12.783Z,2.90
2022-09-13T04:59:17.043Z,2.08
2022-09-13T05:01:25.869Z,2.13
2022-09-13T05:03:31.939Z,2.53
2022-09-13T05:05:34.523Z,2.22
2022-09-13T05:07:37.157Z,2.38
2022-09-13T05:09:39.762Z,2.22
2022-09-13T05:11:43.220Z,2.63
2022-09-13T05:13:52.918Z,2.17
2022-09-13T05:16:01.531Z,2.40
2022-09-13T05:18:04.220Z,2.40
2022-09-13T05:20:07.663Z,3.05
2022-09-13T05:22:10.259Z,3.53
2022-09-13T05:24:12.854Z,2.78
2022-09-13T05:26:15.485Z,2.53
2022-09-13T05:28:18.156Z,2.45
2022-09-13T05:30:20.754Z,2.85
2022-09-13T05:32:24.741Z,2.67
2022-09-13T05:34:27.816Z,2.60
2022-09-13T05:36:30.431Z,2.80
2022-09-13T05:38:33.301Z,2.55
2022-09-13T05:40:36.028Z,2.90
2022-09-13T05:42:38.594Z,2.80
2022-09-13T05:44:41.202Z,2.63
2022-09-13T05:46:47.168Z,3.10
2022-09-13T05:48:51.276Z,3.20
2022-09-13T05:50:58.310Z,2.72
2022-09-13T05:53:01.402Z,2.88
2022-09-13T05:55:04.327Z,2.90
2022-09-13T05:57:06.924Z,2.80
2022-09-13T05:59:12.737Z,2.30
2022-09-13T06:01:16.810Z,2.33
2022-09-13T06:03:19.653Z,2.15
2022-09-13T06:05:23.641Z,2.88
2022-09-13T06:07:26.243Z,2.30
2022-09-13T06:09:29.173Z,2.47
2022-09-13T06:11:32.507Z,2.80
2022-09-13T06:13:35.998Z,2.70
2022-09-13T06:15:43.140Z,2.30
2022-09-13T06:17:47.229Z,2.72
2022-09-13T06:19:49.865Z,2.28
2022-09-13T06:21:53.775Z,2.90
2022-09-13T06:23:56.937Z,2.50
2022-09-13T06:26:04.140Z,2.83
2022-09-13T06:28:06.969Z,2.38
2022-09-13T06:30:13.006Z,2.58
2022-09-13T06:32:15.770Z,2.15
2022-09-13T06:34:18.391Z,2.25
2022-09-13T06:36:20.992Z,2.53
2022-09-13T06:38:24.970Z,2.70
2022-09-13T06:40:27.633Z,2.33
2022-09-13T06:42:30.277Z,2.55
2022-09-13T06:44:32.887Z,2.85
2022-09-13T06:46:36.824Z,3.13
2022-09-13T06:48:40.970Z,3.00
2022-09-13T06:50:45.244Z,3.17
2022-09-13T06:52:48.627Z,2.92
2022-09-13T06:54:53.059Z,2.90
2022-09-13T06:56:56.076Z,3.15
2022-09-13T06:59:00.546Z,2.70
2022-09-13T07:01:12.539Z,2.72
2022-09-13T07:03:15.284Z,3.13
2022-09-13T07:05:18.874Z,3.13
2022-09-13T07:07:21.891Z,2.85
2022-09-13T07:09:25.101Z,3.05
2022-09-13T07:11:31.630Z,2.50
2022-09-13T07:13:34.399Z,3.30
2022-09-13T07:15:37.899Z,2.60
2022-09-13T07:17:40.536Z,2.50
2022-09-13T07:19:43.095Z,2.40
2022-09-13T07:21:45.691Z,2.20
2022-09-13T07:23:48.320Z,2.15
2022-09-13T07:25:55.864Z,2.53
2022-09-13T07:27:59.847Z,2.45
2022-09-13T07:30:02.419Z,2.47
2022-09-13T07:32:05.036Z,2.80
2022-09-13T07:34:09.503Z,2.75
2022-09-13T07:36:13.839Z,2.75
2022-09-13T07:38:16.456Z,2.97
2022-09-13T07:40:19.228Z,2.75
2022-09-13T07:42:21.843Z,2.88
2022-09-13T07:44:25.800Z,2.33
2022-09-13T07:46:32.156Z,3.30
2022-09-13T07:50:38.745Z,2.65
2022-09-13T07:52:41.364Z,2.83
2022-09-13T07:54:43.947Z,2.45
2022-09-13T07:56:47.022Z,2.50
2022-09-13T07:58:51.356Z,2.45
2022-09-13T08:00:55.395Z,2.80
2022-09-13T08:02:58.019Z,2.30
2022-09-13T08:05:00.643Z,2.22
2022-09-13T08:07:03.239Z,2.30
2022-09-13T08:09:07.534Z,2.50
2022-09-13T08:11:16.104Z,1.73
2022-09-13T08:13:18.825Z,2.15
2022-09-13T08:15:21.469Z,1.63
2022-09-13T08:17:25.404Z,2.40
2022-09-13T08:19:28.360Z,2.40
2022-09-13T08:21:34.413Z,2.05
2022-09-13T08:23:37.021Z,2.05
2022-09-13T08:25:40.664Z,2.15
2022-09-13T08:27:43.264Z,2.20
2022-09-13T08:29:46.173Z,2.40
2022-09-13T08:31:48.778Z,2.90
2022-09-13T08:33:53.740Z,2.10
2022-09-13T08:35:58.078Z,2.15
2022-09-13T08:38:02.036Z,2.17
2022-09-13T08:40:05.106Z,1.98
2022-09-13T08:42:22.779Z,2.20
2022-09-13T08:44:30.112Z,2.13
2022-09-13T08:46:36.400Z,2.00
2022-09-13T08:48:44.052Z,2.10
2022-09-13T08:50:53.041Z,2.20
2022-09-13T08:53:01.423Z,2.10
2022-09-13T08:55:16.655Z,1.67
2022-09-13T08:57:27.846Z,1.88
2022-09-13T08:59:46.397Z,1.80
2022-09-13T09:01:59.556Z,1.88
2022-09-13T09:04:11.146Z,2.30
2022-09-13T09:06:17.463Z,2.20
2022-09-13T09:08:31.120Z,2.53
2022-09-13T09:10:38.761Z,2.00
2022-09-13T09:12:46.560Z,2.00
2022-09-13T09:15:02.429Z,2.20
2022-09-13T09:17:09.425Z,1.90
2022-09-13T09:19:19.836Z,2.42
2022-09-13T09:21:23.814Z,2.03
2022-09-13T09:23:32.109Z,2.03
2022-09-13T09:25:35.612Z,1.80
2022-09-13T09:27:38.392Z,2.03
2022-09-13T09:29:44.004Z,2.08
2022-09-13T09:31:55.974Z,2.10
2022-09-13T09:34:08.869Z,2.20
2022-09-13T09:36:20.023Z,1.90
2022-09-13T09:38:37.055Z,1.88
2022-09-13T09:40:39.681Z,2.00
2022-09-13T09:42:44.022Z,1.95
2022-09-13T09:44:50.405Z,1.98
2022-09-13T09:46:58.759Z,1.85
2022-09-13T09:49:28.658Z,1.75
2022-09-13T09:51:32.278Z,1.90
2022-09-13T09:53:41.293Z,1.52
2022-09-13T09:55:47.486Z,1.70
2022-09-13T09:57:56.843Z,1.60
2022-09-13T10:00:12.100Z,1.35
2022-09-13T10:02:18.705Z,1.50
2022-09-13T10:04:23.529Z,1.30
2022-09-13T10:06:28.305Z,1.30
2022-09-13T10:08:34.186Z,1.70
2022-09-13T10:10:42.705Z,1.70
2022-09-13T10:12:51.800Z,1.50
2022-09-13T10:15:05.741Z,1.25
2022-09-13T10:17:20.204Z,1.25
2022-09-13T10:19:26.165Z,1.58
2022-09-13T10:21:29.015Z,1.20
2022-09-13T10:23:32.826Z,1.20
2022-09-13T10:25:37.095Z,1.33
2022-09-13T10:27:43.744Z,0.90
2022-09-13T10:29:49.911Z,0.82
2022-09-13T10:31:55.269Z,0.88
2022-09-13T10:34:00.862Z,1.00
2022-09-13T10:36:06.869Z,1.00
2022-09-13T10:40:27.936Z,0.90
2022-09-13T10:42:31.044Z,1.00
2022-09-13T10:44:41.552Z,0.98
2022-09-13T10:46:44.176Z,0.95
2022-09-13T10:48:55.761Z,1.13
2022-09-13T10:51:04.640Z,1.05
2022-09-13T10:53:32.530Z,1.20
2022-09-13T10:55:37.550Z,1.00
2022-09-13T10:57:40.153Z,1.02
2022-09-13T10:59:53.648Z,1.00
2022-09-13T11:02:25.137Z,1.20
2022-09-13T11:04:48.359Z,1.05
2022-09-13T11:07:01.705Z,1.10
2022-09-13T11:09:15.459Z,0.90
2022-09-13T11:11:29.097Z,1.00
2022-09-13T11:13:44.591Z,1.27
2022-09-13T11:15:57.213Z,1.13
2022-09-13T11:18:17.931Z,1.10
2022-09-13T11:20:32.192Z,0.95
2022-09-13T11:22:50.694Z,1.00
2022-09-13T11:25:03.723Z,0.90
2022-09-13T11:27:16.076Z,0.90
2022-09-13T11:29:34.012Z,1.10
2022-09-13T11:33:59.794Z,0.80
2022-09-13T11:36:18.533Z,0.93
2022-09-13T11:38:49.230Z,0.90
2022-09-13T11:41:00.606Z,0.80
2022-09-13T11:43:18.438Z,0.80
2022-09-13T11:45:25.045Z,0.80
2022-09-13T11:47:41.711Z,0.77
2022-09-13T11:50:00.005Z,0.60
2022-09-13T11:52:15.909Z,0.50
2022-09-13T11:54:30.132Z,0.40
2022-09-13T11:56:38.156Z,0.70
2022-09-13T11:58:47.149Z,0.80
2022-09-13T12:00:54.562Z,0.52
2022-09-13T12:03:06.640Z,0.80
2022-09-13T12:05:22.692Z,0.70
2022-09-13T12:07:36.433Z,0.80
2022-09-13T12:09:47.869Z,0.80
2022-09-13T12:11:56.669Z,0.57
2022-09-13T12:14:01.576Z,0.85
2022-09-13T12:16:09.758Z,0.65
2022-09-13T12:18:17.269Z,0.93
2022-09-13T12:20:30.739Z,0.88
2022-09-13T12:22:35.961Z,0.70
2022-09-13T12:24:43.609Z,0.75
2022-09-13T12:26:51.637Z,0.80
2022-09-13T12:28:58.349Z,0.60
2022-09-13T12:31:06.218Z,0.75
2022-09-13T12:33:09.064Z,1.10
2022-09-13T12:35:23.131Z,1.02
2022-09-13T12:37:49.933Z,0.90
2022-09-13T12:40:24.892Z,1.08
2022-09-13T12:42:41.546Z,1.02
2022-09-13T12:45:01.527Z,0.90
2022-09-13T12:47:40.918Z,0.90
2022-09-13T12:49:54.950Z,1.10
2022-09-13T12:52:11.316Z,0.90
2022-09-13T12:54:39.266Z,0.90
2022-09-13T12:56:59.456Z,0.90
2022-09-13T12:59:35.477Z,1.00
2022-09-13T13:01:38.523Z,0.82
2022-09-13T13:03:47.994Z,1.00
2022-09-13T13:05:55.225Z,0.90
2022-09-13T13:08:03.339Z,1.02
2022-09-13T13:10:06.983Z,0.85
2022-09-13T13:12:11.521Z,0.82
2022-09-13T13:14:44.933Z,1.23
2022-09-13T13:16:49.652Z,1.00
2022-09-13T13:18:53.873Z,1.10
2022-09-13T13:21:23.874Z,1.00
2022-09-13T13:23:31.047Z,0.95
2022-09-13T13:25:39.181Z,1.00
2022-09-13T13:27:48.392Z,0.85
2022-09-13T13:30:48.317Z,1.02
2022-09-13T13:33:16.171Z,0.80
2022-09-13T13:35:32.285Z,0.93
2022-09-13T13:37:37.996Z,0.88
2022-09-13T13:39:42.942Z,0.73
2022-09-13T13:41:55.374Z,0.95
2022-09-13T13:43:58.232Z,0.82
2022-09-13T13:46:29.349Z,0.65
2022-09-13T13:48:38.229Z,0.70
2022-09-13T13:51:16.950Z,0.77
2022-09-13T13:53:24.035Z,0.70
2022-09-13T13:55:46.828Z,0.80
2022-09-13T13:57:59.020Z,0.90
2022-09-13T14:00:08.198Z,0.70
2022-09-13T14:02:14.908Z,0.73
2022-09-13T14:05:11.037Z,0.80
2022-09-13T14:07:37.598Z,0.70
2022-09-13T14:09:48.241Z,0.65
2022-09-13T14:12:07.884Z,0.60
2022-09-13T14:14:26.071Z,0.60
2022-09-13T14:16:48.761Z,0.82
2022-09-13T14:19:19.949Z,0.80
2022-09-13T14:21:26.633Z,0.70
2022-09-13T14:23:29.607Z,0.90
2022-09-13T14:25:32.333Z,0.70
2022-09-13T14:27:37.541Z,0.60
2022-09-13T14:29:40.507Z,0.90
2022-09-13T14:31:47.157Z,0.80
2022-09-13T14:33:49.866Z,0.70
2022-09-13T14:36:00.788Z,0.60
2022-09-13T14:38:19.939Z,0.60
2022-09-13T14:40:26.515Z,0.70
2022-09-13T14:42:39.940Z,0.70
2022-09-13T14:44:45.588Z,0.70
2022-09-13T14:46:52.877Z,0.70
2022-09-13T14:48:58.337Z,0.70
2022-09-13T14:51:04.857Z,0.60
2022-09-13T14:53:12.053Z,0.60
2022-09-13T14:55:20.360Z,0.70
2022-09-13T14:57:28.623Z,0.60
2022-09-13T14:59:35.443Z,0.60
2022-09-13T15:01:38.037Z,0.60
2022-09-13T15:03:43.052Z,0.65
2022-09-13T15:05:53.324Z,0.63
2022-09-13T15:07:55.957Z,0.70
2022-09-13T15:10:06.693Z,0.68
2022-09-13T15:12:25.745Z,0.65
2022-09-13T15:14:32.170Z,0.68
2022-09-13T15:16:34.882Z,0.65
2022-09-13T15:18:37.544Z,0.70
2022-09-13T15:20:50.460Z,0.60
2022-09-13T15:22:53.816Z,0.60
2022-09-13T15:24:58.193Z,0.93
2022-09-13T15:27:06.515Z,0.60
2022-09-13T15:29:19.651Z,0.73
2022-09-13T15:31:24.113Z,0.63
2022-09-13T15:33:31.568Z,0.70
2022-09-13T15:35:38.000Z,0.60
2022-09-13T15:37:40.682Z,0.68
2022-09-13T15:39:49.477Z,0.70
2022-09-13T15:41:53.735Z,0.80
2022-09-13T15:43:56.468Z,0.63
2022-09-13T15:46:01.802Z,0.77
2022-09-13T15:48:05.617Z,0.98
2022-09-13T15:50:11.983Z,0.90
2022-09-13T15:52:14.557Z,0.90
2022-09-13T15:54:19.093Z,0.95
2022-09-13T15:56:23.774Z,0.90
2022-09-13T15:58:26.387Z,1.13
2022-09-13T16:00:29.195Z,1.00
2022-09-13T16:02:33.877Z,1.05
2022-09-13T16:04:36.479Z,1.10
2022-09-13T16:06:39.616Z,1.20
2022-09-13T16:08:42.359Z,1.02
2022-09-13T16:10:45.283Z,1.42
2022-09-13T16:12:48.140Z,1.73
2022-09-13T16:14:50.770Z,1.33
2022-09-13T16:16:53.407Z,1.60
2022-09-13T16:18:57.377Z,1.50
2022-09-13T16:20:59.975Z,1.20
2022-09-13T16:23:02.684Z,1.50
2022-09-13T16:25:05.919Z,1.40
2022-09-13T16:27:08.683Z,1.60
2022-09-13T16:29:11.736Z,1.60
2022-09-13T16:31:15.334Z,1.55
2022-09-13T16:33:17.955Z,1.77
2022-09-13T16:35:21.987Z,1.50
2022-09-13T16:37:24.805Z,1.73
2022-09-13T16:39:27.764Z,1.60
2022-09-13T16:41:30.430Z,1.42
2022-09-13T16:43:33.241Z,1.40
2022-09-13T16:45:38.936Z,1.42
2022-09-13T16:47:42.310Z,1.42
2022-09-13T16:49:45.027Z,1.30
2022-09-13T16:51:49.381Z,1.50
2022-09-13T16:53:53.343Z,1.45
2022-09-13T16:56:06.952Z,1.50
2022-09-13T16:58:09.693Z,1.40
2022-09-13T17:00:14.004Z,1.27
2022-09-13T17:02:16.712Z,1.35
2022-09-13T17:04:19.475Z,1.38
2022-09-13T17:06:23.696Z,1.20
2022-09-13T17:08:28.380Z,1.10
2022-09-13T17:10:30.988Z,1.13
2022-09-13T17:12:33.974Z,1.10
2022-09-13T17:14:37.092Z,1.20
2022-09-13T17:16:42.173Z,1.10
2022-09-13T17:18:45.190Z,1.25
2022-09-13T17:20:49.836Z,1.25
2022-09-13T17:22:52.465Z,1.25
2022-09-13T17:24:56.403Z,1.20
2022-09-13T17:27:00.044Z,1.30
2022-09-13T17:29:02.635Z,1.20
2022-09-13T17:31:05.582Z,1.40
2022-09-13T17:33:08.600Z,1.30
2022-09-13T17:35:11.752Z,1.10
2022-09-13T17:37:14.369Z,1.27
2022-09-13T17:39:17.103Z,1.23
2022-09-13T17:41:21.067Z,1.23
2022-09-13T17:43:23.777Z,1.33
2022-09-13T17:45:26.783Z,1.20
2022-09-13T17:47:29.390Z,1.40
2022-09-13T17:49:32.229Z,1.10
2022-09-13T17:51:35.493Z,1.13
2022-09-13T17:53:39.382Z,1.33
2022-09-13T17:55:48.429Z,1.35
2022-09-13T17:57:52.365Z,1.50
2022-09-13T17:59:55.536Z,1.55
2022-09-13T18:02:00.590Z,1.60
2022-09-13T18:04:04.002Z,1.75
2022-09-13T18:06:09.258Z,3.08
2022-09-13T18:08:11.840Z,2.70
2022-09-13T18:10:40.361Z,1.98
2022-09-13T18:12:37.133Z,2.67
2022-09-13T18:14:41.112Z,1.70
2022-09-13T18:16:44.952Z,1.65
2022-09-13T18:18:47.657Z,1.40
2022-09-13T18:20:50.250Z,1.73
2022-09-13T18:22:52.867Z,1.63
2022-09-13T18:24:55.434Z,2.28
2022-09-13T18:26:58.027Z,3.88
2022-09-13T18:29:02.834Z,2.28
2022-09-13T18:31:10.055Z,2.30
2022-09-13T18:33:13.270Z,1.58
2022-09-13T18:35:16.021Z,1.70
2022-09-13T18:37:18.758Z,2.00
2022-09-13T18:39:23.429Z,1.60
2022-09-13T18:41:27.877Z,1.90
2022-09-13T18:43:31.188Z,1.60
2022-09-13T18:45:33.758Z,1.73
2022-09-13T18:47:37.759Z,1.38
2022-09-13T18:49:40.338Z,1.40
2022-09-13T18:51:45.112Z,1.70
2022-09-13T18:53:48.918Z,1.83
2022-09-13T18:55:51.643Z,1.60
2022-09-13T18:57:54.232Z,1.80
2022-09-13T18:59:59.379Z,1.60
2022-09-13T19:02:02.101Z,2.10
2022-09-13T19:04:08.577Z,1.58
2022-09-13T19:08:15.538Z,1.50
2022-09-13T19:10:18.143Z,1.60
2022-09-13T19:12:21.300Z,1.75
2022-09-13T19:14:26.956Z,1.70
2022-09-13T19:16:29.646Z,1.58
2022-09-13T19:18:32.386Z,1.48
2022-09-13T19:20:36.300Z,1.52
2022-09-13T19:22:38.933Z,1.58
2022-09-13T19:24:41.557Z,1.48
2022-09-13T19:26:46.039Z,1.88
2022-09-13T19:28:51.530Z,1.58
2022-09-13T19:30:54.153Z,1.40
2022-09-13T19:32:56.856Z,1.50
2022-09-13T19:34:59.519Z,1.50
2022-09-13T19:37:03.455Z,1.83
2022-09-13T19:39:08.216Z,1.55
2022-09-13T19:41:12.902Z,1.25
2022-09-13T19:43:15.491Z,1.52
2022-09-13T19:45:18.109Z,1.48
2022-09-13T19:49:44.071Z,1.40
2022-09-13T19:51:51.423Z,1.50
2022-09-13T19:53:58.010Z,1.60
2022-09-13T19:56:00.747Z,1.40
2022-09-13T19:58:03.828Z,1.35
2022-09-13T20:00:07.650Z,1.90
2022-09-13T20:02:10.955Z,1.80
2022-09-13T20:04:15.655Z,1.50
2022-09-13T20:06:18.388Z,1.63
2022-09-13T20:08:24.773Z,1.60
2022-09-13T20:10:29.001Z,1.45
2022-09-13T20:12:31.627Z,1.70
2022-09-13T20:14:34.554Z,1.60
2022-09-13T20:16:39.431Z,1.38
2022-09-13T20:18:42.488Z,1.40
2022-09-13T20:20:45.746Z,1.92
2022-09-13T20:22:48.559Z,1.52
2022-09-13T20:24:51.150Z,1.40
2022-09-13T20:26:55.089Z,1.50
2022-09-13T20:28:59.766Z,1.55
2022-09-13T20:31:02.429Z,1.55
2022-09-13T20:33:05.668Z,1.45
2022-09-13T20:35:10.095Z,1.50
2022-09-13T20:37:12.686Z,2.72
2022-09-13T20:39:16.287Z,1.40
2022-09-13T20:41:19.329Z,1.50
2022-09-13T20:43:23.412Z,1.58
2022-09-13T20:45:26.017Z,1.45
2022-09-13T20:47:28.976Z,1.40
2022-09-13T20:49:31.558Z,1.58
2022-09-13T20:51:34.874Z,1.40
2022-09-13T20:53:39.061Z,2.20
2022-09-13T20:55:42.114Z,1.63
2022-09-13T20:57:44.802Z,1.83
2022-09-13T20:59:48.907Z,1.52
2022-09-13T21:01:51.723Z,1.52
2022-09-13T21:03:55.743Z,1.40
2022-09-13T21:06:00.994Z,1.60
2022-09-13T21:08:21.843Z,1.50
2022-09-13T21:10:26.079Z,1.30
2022-09-13T21:12:29.499Z,1.65
2022-09-13T21:14:32.143Z,1.60
2022-09-13T21:16:38.930Z,1.35
2022-09-13T21:18:42.293Z,1.50
2022-09-13T21:20:44.883Z,1.67
2022-09-13T21:22:48.188Z,1.52
2022-09-13T21:24:50.772Z,1.50
2022-09-13T21:26:53.326Z,1.40
2022-09-13T21:28:57.017Z,1.42
2022-09-13T21:31:00.795Z,1.42
2022-09-13T21:33:05.010Z,1.40
2022-09-13T21:35:08.121Z,1.63
2022-09-13T21:37:10.984Z,1.60
2022-09-13T21:39:13.878Z,1.42
2022-09-13T21:41:19.323Z,1.50
2022-09-13T21:43:22.198Z,1.30
2022-09-13T21:45:24.877Z,1.40
2022-09-13T21:47:28.603Z,1.40
2022-09-13T21:49:32.573Z,1.30
2022-09-13T21:51:37.508Z,1.42
2022-09-13T21:53:40.515Z,1.00
2022-09-13T21:55:43.169Z,1.60
2022-09-13T21:57:45.719Z,1.40
2022-09-13T21:59:50.120Z,1.45
2022-09-13T22:01:54.151Z,1.42
2022-09-13T22:03:57.762Z,1.40
2022-09-13T22:06:02.102Z,1.60
2022-09-13T22:08:04.713Z,1.50
2022-09-13T22:10:08.018Z,1.60
2022-09-13T22:12:10.589Z,1.60
2022-09-13T22:14:15.230Z,1.55
2022-09-13T22:16:21.113Z,1.20
2022-09-13T22:18:23.718Z,1.50
2022-09-13T22:20:26.351Z,1.38
2022-09-13T22:22:30.360Z,1.38
2022-09-13T22:24:35.630Z,1.33
2022-09-13T22:26:40.555Z,1.38
2022-09-13T22:28:43.743Z,1.40
2022-09-13T22:30:46.689Z,1.80
2022-09-13T22:32:49.350Z,1.40
2022-09-13T22:34:51.936Z,1.35
2022-09-13T22:36:55.993Z,1.42
2022-09-13T22:39:00.032Z,1.38
2022-09-13T22:41:05.451Z,1.40
2022-09-13T22:43:08.057Z,1.80
2022-09-13T22:45:11.242Z,1.48
2022-09-13T22:47:13.826Z,1.58
2022-09-13T22:49:19.685Z,1.73
2022-09-13T22:51:23.661Z,1.58
2022-09-13T22:53:27.151Z,1.73
2022-09-13T22:55:31.045Z,1.70
2022-09-13T22:57:33.616Z,1.77
2022-09-13T22:59:36.213Z,1.50
2022-09-13T23:01:39.043Z,1.77
2022-09-13T23:03:43.783Z,1.83
2022-09-13T23:05:53.056Z,1.90
2022-09-13T23:07:55.685Z,1.42
2022-09-13T23:09:58.271Z,1.50
2022-09-13T23:12:02.432Z,1.60
2022-09-13T23:14:08.171Z,1.83
2022-09-13T23:16:15.978Z,1.80
2022-09-13T23:18:18.881Z,2.03
2022-09-13T23:20:21.453Z,1.75
2022-09-13T23:22:24.023Z,2.00
2022-09-13T23:24:26.604Z,2.20
2022-09-13T23:26:29.747Z,1.92
2022-09-13T23:28:34.179Z,1.98
2022-09-13T23:30:36.764Z,2.10
2022-09-13T23:32:39.538Z,2.00
2022-09-13T23:34:42.447Z,1.70
2022-09-13T23:36:46.695Z,1.75
2022-09-13T23:38:51.170Z,1.83
2022-09-13T23:40:55.391Z,2.10
2022-09-13T23:42:58.269Z,1.90
2022-09-13T23:45:02.252Z,2.05
2022-09-13T23:47:04.867Z,1.85
2022-09-13T23:49:07.497Z,2.03
2022-09-13T23:51:11.975Z,1.98
2022-09-13T23:53:14.591Z,2.00
2022-09-13T23:55:17.989Z,2.10
2022-09-13T23:57:20.763Z,2.05
2022-09-13T23:59:23.398Z,2.13
